Time;durP1;ratioP1;P1;durP2;ratioP2;P2;SDS_P1;SDS_P2;PMS_P1;PMS_P2;Temp;Humidity;BMP_temperature;BMP_pressure;BME280_temperature;BME280_humidity;BME280_pressure;Samples;Min_cycle;Max_cycle;Signal;HPM_P1;HPM_P2
2022/04/28 00:01:01;;;;;;;4.90;4.27;;;20.40;87.90;;;;;;5054853;28;20188;-87
2022/04/28 00:03:28;;;;;;;6.23;4.47;;;20.40;88.70;;;;;;5051953;28;20678;-88
2022/04/28 00:05:57;;;;;;;9.43;5.10;;;20.30;88.60;;;;;;5051465;28;20220;-81
2022/04/28 00:08:25;;;;;;;8.73;4.97;;;20.30;88.90;;;;;;5052849;28;20211;-79
2022/04/28 00:10:52;;;;;;;8.77;4.87;;;20.30;89.30;;;;;;5052965;28;20184;-77
2022/04/28 00:13:20;;;;;;;8.60;5.27;;;20.30;89.80;;;;;;5052834;28;20211;-77
2022/04/28 00:15:50;;;;;;;7.00;4.77;;;20.20;89.70;;;;;;5051760;28;20180;-79
2022/04/28 00:31:46;;;;;;;7.17;5.27;;;20.60;90.20;;;;;;5033396;28;20235;-80
2022/04/28 00:34:13;;;;;;;11.53;4.53;;;20.60;90.10;;;;;;5033547;28;20172;-79
2022/04/28 00:36:41;;;;;;;10.17;5.23;;;20.80;89.60;;;;;;5043038;28;20208;-78
2022/04/28 00:39:08;;;;;;;7.13;4.23;;;20.80;89.70;;;;;;5052082;28;20186;-79
2022/04/28 00:41:35;;;;;;;6.13;4.67;;;20.90;89.30;;;;;;5051811;28;20225;-79
2022/04/28 00:44:03;;;;;;;5.00;4.50;;;21.10;89.30;;;;;;5048041;28;20843;-79
2022/04/28 00:46:30;;;;;;;6.47;4.03;;;21.30;89.10;;;;;;5050553;28;20191;-79
2022/04/28 00:51:43;;;;;;;8.70;3.60;;;21.30;88.50;;;;;;5045088;28;20191;-79
2022/04/28 00:54:10;;;;;;;8.10;3.90;;;21.30;88.50;;;;;;5056563;28;20186;-86
2022/04/28 00:56:38;;;;;;;7.20;4.07;;;21.30;88.60;;;;;;5053783;28;20176;-81
2022/04/28 00:59:06;;;;;;;3.97;3.27;;;21.30;88.10;;;;;;5057032;28;20179;-82
2022/04/28 01:01:34;;;;;;;6.00;3.50;;;21.30;88.30;;;;;;5054670;28;20259;-84
2022/04/28 01:04:01;;;;;;;3.30;2.50;;;21.40;88.30;;;;;;5055925;28;20673;-83
2022/04/28 01:06:29;;;;;;;5.07;2.83;;;21.30;87.30;;;;;;5055759;28;20188;-79
2022/04/28 01:09:00;;;;;;;7.37;3.17;;;21.30;88.20;;;;;;5056341;28;20183;-79
2022/04/28 01:11:28;;;;;;;6.60;4.20;;;21.50;88.30;;;;;;5057139;28;20180;-80
2022/04/28 01:13:56;;;;;;;6.80;3.10;;;21.70;88.40;;;;;;5054782;28;20215;-80
2022/04/28 01:16:23;;;;;;;3.57;2.70;;;22.10;88.00;;;;;;5056102;28;20212;-82
2022/04/28 01:18:50;;;;;;;4.27;2.40;;;22.30;86.00;;;;;;5055762;28;20183;-83
2022/04/28 01:21:18;;;;;;;4.93;2.90;;;22.50;85.50;;;;;;5050664;28;20188;-81
2022/04/28 01:23:45;;;;;;;9.60;3.87;;;22.50;85.40;;;;;;5053038;28;20207;-82
2022/04/28 01:26:14;;;;;;;5.00;3.20;;;22.80;85.50;;;;;;5055975;28;20553;-87
2022/04/28 01:28:42;;;;;;;3.57;2.67;;;22.60;84.90;;;;;;5051093;28;20187;-90
2022/04/28 01:31:09;;;;;;;4.37;2.50;;;22.60;83.50;;;;;;5055989;28;20175;-86
2022/04/28 01:33:36;;;;;;;6.00;2.93;;;22.50;83.20;;;;;;5055172;28;20214;-81
2022/04/28 01:36:04;;;;;;;4.50;1.80;;;22.50;81.30;;;;;;5054630;28;20459;-87
2022/04/28 01:38:32;;;;;;;5.53;2.57;;;22.50;81.40;;;;;;5054919;28;20229;-87
2022/04/28 01:41:00;;;;;;;4.90;3.00;;;22.80;82.70;;;;;;5055217;28;20262;-89
2022/04/28 01:43:27;;;;;;;8.00;4.53;;;22.80;82.70;;;;;;5055577;28;20224;-83
2022/04/28 01:45:54;;;;;;;4.27;2.23;;;22.80;83.70;;;;;;5053017;28;20195;-85
2022/04/28 01:48:22;;;;;;;2.67;1.83;;;23.10;82.80;;;;;;5054607;28;20187;-92
2022/04/28 01:56:20;;;;;;;6.43;2.00;;;23.30;79.20;;;;;;5056161;28;20218;-86
2022/04/28 01:58:48;;;;;;;3.00;2.40;;;23.20;78.60;;;;;;5055071;28;20696;-87
2022/04/28 02:01:15;;;;;;;4.37;2.50;;;22.80;79.70;;;;;;5070374;28;20210;-79
2022/04/28 02:03:42;;;;;;;6.33;2.67;;;22.60;81.20;;;;;;5054148;28;20172;-83
2022/04/28 02:06:10;;;;;;;5.27;3.87;;;22.50;81.90;;;;;;5054704;28;20184;-87
2022/04/28 02:08:39;;;;;;;3.57;3.27;;;22.60;82.40;;;;;;5055138;28;20172;-87
2022/04/28 02:11:07;;;;;;;4.33;2.87;;;22.70;82.90;;;;;;5056579;28;20286;-83
2022/04/28 02:13:35;;;;;;;6.20;2.50;;;22.50;83.60;;;;;;5053815;28;20199;-87
2022/04/28 02:16:03;;;;;;;5.50;1.77;;;22.30;84.10;;;;;;5052947;28;21053;-84
2022/04/28 02:18:30;;;;;;;4.13;2.07;;;22.40;83.20;;;;;;5053446;28;20180;-81
2022/04/28 02:20:57;;;;;;;3.90;1.97;;;22.50;83.30;;;;;;5046426;28;20184;-83
2022/04/28 02:23:24;;;;;;;3.63;2.20;;;22.70;84.10;;;;;;5053120;28;20661;-82
2022/04/28 02:25:52;;;;;;;4.40;1.77;;;22.80;82.80;;;;;;5053488;28;20268;-82
2022/04/28 02:28:20;;;;;;;2.27;1.50;;;23.00;82.50;;;;;;5054105;28;20168;-80
2022/04/28 02:30:47;;;;;;;2.30;1.73;;;23.00;81.00;;;;;;5054246;28;20180;-81
2022/04/28 02:33:18;;;;;;;12.40;4.93;;;22.80;81.50;;;;;;5054388;28;20188;-81
2022/04/28 02:35:45;;;;;;;4.30;2.10;;;22.70;83.00;;;;;;5053767;28;20172;-81
2022/04/28 02:38:13;;;;;;;3.93;1.70;;;22.50;82.90;;;;;;5053376;28;20267;-82
2022/04/28 02:40:40;;;;;;;3.80;1.97;;;22.30;83.50;;;;;;5053899;28;20195;-80
2022/04/28 02:43:07;;;;;;;4.50;1.77;;;22.30;84.00;;;;;;5053131;28;20231;-84
2022/04/28 02:45:35;;;;;;;3.47;1.47;;;22.30;83.80;;;;;;5054185;28;20286;-81
2022/04/28 02:48:02;;;;;;;2.03;1.30;;;22.00;84.30;;;;;;5049366;28;20231;-83
2022/04/28 02:50:30;;;;;;;4.83;1.57;;;22.00;84.60;;;;;;5035240;28;20168;-82
2022/04/28 02:52:57;;;;;;;2.23;1.50;;;22.00;84.10;;;;;;5053850;28;20176;-85
2022/04/28 02:55:25;;;;;;;3.63;1.87;;;22.10;84.70;;;;;;5054312;28;20222;-83
2022/04/28 02:57:52;;;;;;;1.30;1.20;;;22.00;85.60;;;;;;5053972;28;20544;-85
2022/04/28 03:00:20;;;;;;;3.60;1.43;;;21.90;85.50;;;;;;5050842;28;20260;-80
2022/04/28 03:02:47;;;;;;;2.50;1.30;;;21.80;86.40;;;;;;5053826;28;20237;-81
2022/04/28 03:05:15;;;;;;;2.67;1.50;;;21.80;87.00;;;;;;5053066;28;20265;-83
2022/04/28 03:10:51;;;;;;;4.20;1.87;;;21.50;87.50;;;;;;5052584;28;20195;-79
2022/04/28 03:13:21;;;;;;;6.87;3.63;;;21.40;87.90;;;;;;5052677;28;20263;-77
2022/04/28 03:15:49;;;;;;;11.80;7.13;;;21.30;88.80;;;;;;5049863;28;20643;-77
2022/04/28 03:18:17;;;;;;;12.90;6.80;;;21.20;89.30;;;;;;5052446;28;20203;-80
2022/04/28 03:20:45;;;;;;;4.93;1.83;;;21.10;90.40;;;;;;5051444;28;20708;-80
2022/04/28 03:23:13;;;;;;;6.43;2.13;;;20.90;90.40;;;;;;5046425;28;20187;-78
2022/04/28 03:25:41;;;;;;;3.77;1.50;;;20.80;91.10;;;;;;5049388;28;20261;-84
2022/04/28 03:28:09;;;;;;;4.73;1.93;;;20.60;91.20;;;;;;5052149;28;20271;-83
2022/04/28 03:30:37;;;;;;;8.27;2.30;;;20.50;91.70;;;;;;5046287;28;20183;-84
2022/04/28 03:33:04;;;;;;;3.47;1.73;;;20.40;91.70;;;;;;5049622;28;20223;-82
2022/04/28 03:35:31;;;;;;;6.00;2.13;;;20.30;92.00;;;;;;5039099;28;20211;-82
2022/04/28 03:37:59;;;;;;;6.67;2.23;;;20.30;92.10;;;;;;5043263;28;20664;-82
2022/04/28 03:40:27;;;;;;;7.23;2.20;;;20.20;92.40;;;;;;5048613;28;20191;-81
2022/04/28 03:42:54;;;;;;;3.20;1.57;;;20.20;92.60;;;;;;5047605;28;20266;-85
2022/04/28 03:45:22;;;;;;;2.40;1.33;;;20.00;92.30;;;;;;5048903;28;20212;-80
2022/04/28 03:47:49;;;;;;;6.33;1.47;;;19.70;91.40;;;;;;5047818;28;20180;-78
2022/04/28 03:50:17;;;;;;;3.27;1.67;;;19.60;92.10;;;;;;5046944;28;20241;-79
2022/04/28 03:52:44;;;;;;;8.10;1.40;;;19.60;92.60;;;;;;5049088;28;20172;-79
2022/04/28 03:55:11;;;;;;;2.47;1.10;;;19.60;92.70;;;;;;5050214;28;20233;-80
2022/04/28 03:57:39;;;;;;;8.13;1.70;;;19.50;92.50;;;;;;5046369;28;20180;-81
2022/04/28 04:00:07;;;;;;;3.50;1.50;;;19.50;92.80;;;;;;5049721;28;20180;-78
2022/04/28 04:02:35;;;;;;;2.57;1.60;;;19.50;92.90;;;;;;5047682;28;20193;-81
2022/04/28 04:05:02;;;;;;;2.53;1.70;;;19.50;93.00;;;;;;5049824;28;20215;-80
2022/04/28 04:07:33;;;;;;;4.30;2.13;;;19.60;93.10;;;;;;5051602;28;20263;-79
2022/04/28 04:10:01;;;;;;;4.40;1.80;;;19.60;93.30;;;;;;5046809;28;20207;-80
2022/04/28 04:12:28;;;;;;;2.43;1.37;;;19.60;93.50;;;;;;5049400;28;20187;-79
2022/04/28 04:14:55;;;;;;;3.40;1.30;;;19.60;93.50;;;;;;5043534;28;20227;-79
2022/04/28 04:17:23;;;;;;;4.43;1.73;;;19.60;93.70;;;;;;5044654;28;20184;-80
2022/04/28 04:19:50;;;;;;;4.73;1.60;;;19.70;93.90;;;;;;5052276;28;20305;-81
2022/04/28 04:22:17;;;;;;;7.77;2.20;;;19.70;93.70;;;;;;5052062;28;20214;-81
2022/04/28 04:24:45;;;;;;;4.17;2.20;;;19.70;94.10;;;;;;5051798;28;20317;-80
2022/04/28 04:27:14;;;;;;;3.53;1.73;;;19.80;94.20;;;;;;5053584;28;20180;-78
2022/04/28 04:29:42;;;;;;;5.00;2.47;;;19.70;94.00;;;;;;5055210;28;20191;-79
2022/04/28 04:32:18;;;;;;;6.77;2.40;;;19.70;94.20;;;;;;5055474;28;20187;-79
2022/04/28 04:34:46;;;;;;;4.87;2.07;;;19.80;94.30;;;;;;5055024;28;20188;-78
2022/04/28 04:37:15;;;;;;;5.50;2.10;;;19.80;94.20;;;;;;5051507;28;20654;-78
2022/04/28 04:39:45;;;;;;;5.27;2.63;;;19.80;94.20;;;;;;5052701;28;20180;-78
2022/04/28 04:42:12;;;;;;;4.33;2.17;;;19.90;94.30;;;;;;5053563;28;20733;-78
2022/04/28 04:44:40;;;;;;;5.97;2.53;;;20.00;94.30;;;;;;5049383;28;20211;-78
2022/04/28 04:47:07;;;;;;;4.90;2.40;;;20.00;94.30;;;;;;5052843;28;20647;-77
2022/04/28 04:49:35;;;;;;;5.73;2.50;;;20.00;94.30;;;;;;5047541;28;20180;-78
2022/04/28 04:52:02;;;;;;;2.00;1.80;;;20.00;94.20;;;;;;5055489;28;20180;-79
2022/04/28 04:54:29;;;;;;;4.80;2.20;;;20.00;94.10;;;;;;5048644;28;20191;-79
2022/04/28 04:56:57;;;;;;;7.57;2.13;;;20.00;94.30;;;;;;5044612;28;20184;-78
2022/04/28 04:59:25;;;;;;;5.30;2.10;;;20.00;94.20;;;;;;5053618;28;20187;-79
2022/04/28 05:01:53;;;;;;;3.60;1.90;;;19.90;94.10;;;;;;5050818;28;20244;-79
2022/04/28 05:04:20;;;;;;;12.13;2.67;;;19.90;94.10;;;;;;5071907;28;20228;-78
2022/04/28 05:06:47;;;;;;;3.87;2.27;;;19.90;94.20;;;;;;5072268;28;20191;-79
2022/04/28 05:09:15;;;;;;;3.27;2.20;;;19.90;94.30;;;;;;5062597;28;20215;-81
2022/04/28 05:11:43;;;;;;;4.43;2.20;;;19.80;94.10;;;;;;5055779;28;20191;-78
2022/04/28 05:14:11;;;;;;;4.07;2.00;;;19.80;94.10;;;;;;5056984;28;20195;-78
2022/04/28 05:16:39;;;;;;;4.03;2.53;;;19.80;93.90;;;;;;5057389;28;20192;-78
2022/04/28 05:19:06;;;;;;;3.23;2.30;;;19.80;94.10;;;;;;5053209;28;20215;-78
2022/04/28 05:21:33;;;;;;;5.73;2.30;;;19.80;94.20;;;;;;5056175;28;20267;-79
2022/04/28 05:24:01;;;;;;;4.90;2.03;;;19.80;94.20;;;;;;5053906;28;20595;-79
2022/04/28 05:26:28;;;;;;;5.10;2.10;;;19.70;93.70;;;;;;5051424;28;20593;-80
2022/04/28 05:28:55;;;;;;;5.23;2.03;;;19.70;93.80;;;;;;5050938;28;20714;-80
2022/04/28 05:31:23;;;;;;;2.63;2.13;;;19.80;94.00;;;;;;5056429;28;20187;-80
2022/04/28 05:33:53;;;;;;;3.03;2.07;;;19.80;93.60;;;;;;5055145;28;20630;-79
2022/04/28 05:36:21;;;;;;;4.87;2.10;;;19.70;93.40;;;;;;5056890;28;20176;-80
2022/04/28 05:38:48;;;;;;;6.20;2.23;;;19.70;93.30;;;;;;5063216;28;20248;-79
2022/04/28 05:41:16;;;;;;;4.97;2.80;;;19.70;93.40;;;;;;5065895;28;20180;-76
2022/04/28 05:46:28;;;;;;;4.10;1.80;;;19.70;93.30;;;;;;5064626;28;20206;-79
2022/04/28 05:48:56;;;;;;;4.43;1.93;;;19.70;92.90;;;;;;5058050;28;20196;-78
2022/04/28 05:51:23;;;;;;;2.90;1.73;;;19.70;92.90;;;;;;5053332;28;20330;-80
2022/04/28 05:53:50;;;;;;;4.73;2.00;;;19.70;93.20;;;;;;5054679;28;20172;-77
2022/04/28 05:56:17;;;;;;;4.13;2.00;;;19.80;93.30;;;;;;5078959;28;20188;-79
2022/04/28 05:58:45;;;;;;;4.40;2.00;;;19.70;93.30;;;;;;5055419;28;20184;-82
2022/04/28 06:01:12;;;;;;;3.67;1.80;;;19.80;93.40;;;;;;5050001;28;20184;-80
2022/04/28 06:03:41;;;;;;;5.03;1.90;;;19.70;93.30;;;;;;5039359;28;20180;-78
2022/04/28 06:06:08;;;;;;;4.40;2.07;;;19.70;93.40;;;;;;5052071;28;20221;-78
2022/04/28 06:08:36;;;;;;;2.37;1.80;;;19.70;93.30;;;;;;5053145;28;20183;-81
2022/04/28 06:11:04;;;;;;;5.03;2.30;;;19.70;93.10;;;;;;5054344;28;20210;-82
2022/04/28 06:13:32;;;;;;;3.77;2.37;;;19.70;93.30;;;;;;5053800;28;20180;-81
2022/04/28 06:15:59;;;;;;;3.10;2.40;;;19.70;93.00;;;;;;5056369;28;20219;-79
2022/04/28 06:18:27;;;;;;;2.37;1.90;;;19.70;92.90;;;;;;5070755;28;20270;-76
2022/04/28 06:20:56;;;;;;;4.27;2.07;;;19.60;93.00;;;;;;5071210;28;20201;-77
2022/04/28 06:23:23;;;;;;;4.20;2.00;;;19.60;93.10;;;;;;5054301;28;20254;-80
2022/04/28 06:25:50;;;;;;;2.03;1.93;;;19.60;93.40;;;;;;5050898;28;20207;-78
2022/04/28 06:28:18;;;;;;;4.97;2.40;;;19.50;93.40;;;;;;5048750;28;20183;-79
2022/04/28 06:30:45;;;;;;;4.50;2.17;;;19.60;93.80;;;;;;5060556;28;20184;-77
2022/04/28 06:33:12;;;;;;;2.73;2.53;;;19.60;93.90;;;;;;5053095;28;20175;-76
2022/04/28 06:35:40;;;;;;;4.57;2.40;;;19.60;93.80;;;;;;5053528;28;20590;-78
2022/04/28 06:38:07;;;;;;;4.73;3.00;;;19.60;93.90;;;;;;5051624;28;20187;-77
2022/04/28 06:40:35;;;;;;;5.53;3.20;;;19.60;94.00;;;;;;5053508;28;20263;-75
2022/04/28 06:43:02;;;;;;;4.80;2.90;;;19.60;94.00;;;;;;5055982;28;20263;-78
2022/04/28 06:45:30;;;;;;;3.67;2.90;;;19.60;94.10;;;;;;5068311;28;20243;-77
2022/04/28 06:47:57;;;;;;;5.23;3.13;;;19.70;94.20;;;;;;5070374;28;20217;-77
2022/04/28 06:50:26;;;;;;;6.33;3.37;;;19.70;94.30;;;;;;5051706;28;20193;-75
2022/04/28 06:52:53;;;;;;;6.60;3.40;;;19.70;94.30;;;;;;5054476;28;20527;-78
2022/04/28 06:55:20;;;;;;;6.37;3.17;;;19.70;94.40;;;;;;5051775;28;20184;-76
2022/04/28 06:57:48;;;;;;;11.00;3.50;;;19.70;94.50;;;;;;5053277;28;20643;-76
2022/04/28 07:00:15;;;;;;;7.77;3.07;;;19.70;94.50;;;;;;5070461;28;20246;-76
2022/04/28 07:02:43;;;;;;;7.47;3.20;;;19.70;94.50;;;;;;5068463;28;20579;-76
2022/04/28 07:05:10;;;;;;;11.57;3.10;;;19.70;94.60;;;;;;5056621;28;20223;-76
2022/04/28 07:07:38;;;;;;;5.30;3.00;;;19.70;94.60;;;;;;5053302;28;20176;-76
2022/04/28 07:10:06;;;;;;;5.93;3.33;;;19.70;94.70;;;;;;5063590;28;20258;-76
2022/04/28 07:12:33;;;;;;;5.57;3.43;;;19.70;94.70;;;;;;5053341;28;20186;-76
2022/04/28 07:15:00;;;;;;;7.27;3.30;;;19.70;94.70;;;;;;5052447;28;20192;-76
2022/04/28 07:17:28;;;;;;;6.03;3.43;;;19.70;94.70;;;;;;5051393;28;20190;-77
2022/04/28 07:19:55;;;;;;;7.07;3.60;;;19.70;94.80;;;;;;5046992;28;20184;-77
2022/04/28 07:22:22;;;;;;;11.67;3.63;;;19.70;94.90;;;;;;5042009;28;20192;-77
2022/04/28 07:24:50;;;;;;;7.60;3.53;;;19.70;94.80;;;;;;5040621;28;20222;-77
2022/04/28 07:27:17;;;;;;;5.57;3.87;;;19.70;94.80;;;;;;5048864;28;20266;-78
2022/04/28 07:29:44;;;;;;;10.90;3.80;;;19.70;94.80;;;;;;5053801;28;20211;-76
2022/04/28 07:32:12;;;;;;;5.80;3.63;;;19.70;94.70;;;;;;5062143;28;20200;-76
2022/04/28 07:34:39;;;;;;;5.67;3.57;;;19.70;94.50;;;;;;5053173;28;20260;-77
2022/04/28 07:37:06;;;;;;;6.50;3.20;;;19.70;94.50;;;;;;5054843;28;20238;-77
2022/04/28 07:39:34;;;;;;;3.80;2.97;;;19.60;94.40;;;;;;5053314;28;20565;-76
2022/04/28 07:42:01;;;;;;;7.20;3.50;;;19.60;94.40;;;;;;5052980;28;20227;-76
2022/04/28 07:44:28;;;;;;;6.37;3.07;;;19.70;94.50;;;;;;5052839;28;20257;-77
2022/04/28 07:46:58;;;;;;;4.23;3.00;;;19.60;94.40;;;;;;5052506;28;20202;-78
2022/04/28 07:49:26;;;;;;;6.47;3.43;;;19.60;94.40;;;;;;5053289;28;20245;-77
2022/04/28 07:51:53;;;;;;;9.13;3.83;;;19.60;94.40;;;;;;5061060;28;20637;-78
2022/04/28 07:54:20;;;;;;;4.53;3.30;;;19.50;94.40;;;;;;5056741;28;20191;-78
2022/04/28 07:56:48;;;;;;;5.57;3.53;;;19.50;94.40;;;;;;5048399;28;20179;-79
2022/04/28 07:59:15;;;;;;;6.97;3.00;;;19.50;94.40;;;;;;5053268;28;20191;-77
2022/04/28 08:01:42;;;;;;;8.30;3.80;;;19.60;94.30;;;;;;5044269;28;20582;-76
2022/04/28 08:04:10;;;;;;;4.60;2.93;;;19.60;94.10;;;;;;5049111;28;20217;-76
2022/04/28 08:06:37;;;;;;;8.23;3.10;;;19.60;93.90;;;;;;5052397;28;20639;-76
2022/04/28 08:09:04;;;;;;;2.93;2.60;;;19.60;93.70;;;;;;5069962;28;20179;-77
2022/04/28 08:11:32;;;;;;;5.30;2.80;;;19.50;93.40;;;;;;5072655;28;20166;-78
2022/04/28 08:13:59;;;;;;;5.60;2.70;;;19.60;93.30;;;;;;5057970;28;20211;-77
2022/04/28 08:16:26;;;;;;;3.60;2.90;;;19.60;93.20;;;;;;5058619;28;20190;-76
2022/04/28 08:18:54;;;;;;;4.83;2.60;;;19.60;93.10;;;;;;5052564;28;20176;-76
2022/04/28 08:21:22;;;;;;;5.37;2.60;;;19.50;93.10;;;;;;5045009;28;20267;-77
2022/04/28 08:23:49;;;;;;;4.17;2.57;;;19.60;92.80;;;;;;5043441;28;20194;-76
2022/04/28 08:26:17;;;;;;;4.43;2.70;;;19.60;92.70;;;;;;5070800;28;20253;-78
2022/04/28 08:28:44;;;;;;;7.07;2.73;;;19.60;92.70;;;;;;5070874;28;20269;-77
2022/04/28 08:31:12;;;;;;;4.90;2.40;;;19.60;92.40;;;;;;5063380;28;20187;-77
2022/04/28 08:33:42;;;;;;;4.90;2.53;;;19.60;92.10;;;;;;5051747;28;20328;-77
2022/04/28 08:36:13;;;;;;;8.10;2.20;;;19.60;91.60;;;;;;5068411;28;20187;-78
2022/04/28 08:38:40;;;;;;;4.40;2.47;;;19.70;91.50;;;;;;5051739;28;20208;-77
2022/04/28 08:41:12;;;;;;;3.13;2.20;;;19.70;91.70;;;;;;5073106;28;20229;-76
2022/04/28 08:43:43;;;;;;;2.40;2.07;;;19.60;91.60;;;;;;5045328;28;20250;-77
2022/04/28 08:49:01;;;;;;;3.50;2.03;;;19.60;91.80;;;;;;5041382;28;20187;-73
2022/04/28 08:51:28;;;;;;;4.23;2.00;;;19.60;91.90;;;;;;5043944;28;20180;-74
2022/04/28 08:53:57;;;;;;;2.70;2.13;;;19.60;91.80;;;;;;5052300;28;20303;-74
2022/04/28 08:56:24;;;;;;;7.80;2.20;;;19.70;91.70;;;;;;5053259;28;20550;-77
2022/04/28 08:58:53;;;;;;;3.07;1.87;;;19.60;91.90;;;;;;5066801;28;20195;-76
2022/04/28 09:01:30;;;;;;;2.37;1.90;;;19.60;91.90;;;;;;5072543;28;20237;-76
2022/04/28 09:03:59;;;;;;;3.30;2.33;;;19.50;91.80;;;;;;5072528;28;20178;-74
2022/04/28 09:06:35;;;;;;;6.93;2.03;;;19.50;91.70;;;;;;5060886;28;20196;-80
2022/04/28 09:09:11;;;;;;;3.20;1.87;;;19.60;91.40;;;;;;5053439;28;20172;-77
2022/04/28 09:11:40;;;;;;;6.93;2.10;;;19.60;91.40;;;;;;5072666;28;20191;-74
2022/04/28 09:14:17;;;;;;;5.00;2.20;;;19.60;91.20;;;;;;5058596;28;20708;-75
2022/04/28 09:16:59;;;;;;;5.47;2.37;;;19.60;91.30;;;;;;5046731;28;20187;-79
2022/04/28 09:19:30;;;;;;;5.43;2.20;;;19.50;91.30;;;;;;5066817;28;20665;-76
2022/04/28 09:22:06;;;;;;;4.20;2.50;;;19.60;91.30;;;;;;5055618;28;20509;-75
2022/04/28 09:24:34;;;;;;;6.63;2.07;;;19.60;91.30;;;;;;5049150;28;20208;-73
2022/04/28 09:27:02;;;;;;;3.33;1.97;;;19.60;91.00;;;;;;5036302;28;20191;-75
2022/04/28 09:29:44;;;;;;;3.40;2.03;;;19.60;91.00;;;;;;5037704;28;20187;-74
2022/04/28 09:32:13;;;;;;;6.70;2.33;;;19.60;90.90;;;;;;5069532;28;20626;-75
2022/04/28 09:34:52;;;;;;;3.23;1.97;;;19.60;91.00;;;;;;5074241;28;20179;-78
2022/04/28 09:37:26;;;;;;;4.07;1.80;;;19.60;91.10;;;;;;5054762;28;20657;-74
2022/04/28 09:47:33;;;;;;;4.43;2.33;;;19.60;91.10;;;;;;5011183;28;20274;-77
2022/04/28 09:50:00;;;;;;;6.23;3.40;;;19.50;91.20;;;;;;5034897;28;20205;-77
2022/04/28 09:52:35;;;;;;;8.40;3.23;;;19.50;91.50;;;;;;5054548;28;20176;-76
2022/04/28 09:55:04;;;;;;;4.93;2.80;;;19.50;91.40;;;;;;5053860;28;20209;-80
2022/04/28 09:57:31;;;;;;;5.93;2.37;;;19.50;91.40;;;;;;5055501;28;20183;-75
2022/04/28 10:00:00;;;;;;;5.40;2.37;;;19.50;91.50;;;;;;5054221;28;20176;-75
2022/04/28 10:02:28;;;;;;;6.80;2.50;;;19.50;91.50;;;;;;5054380;28;20180;-79
2022/04/28 10:04:57;;;;;;;5.00;2.33;;;19.50;91.50;;;;;;5054645;28;20668;-78
2022/04/28 10:07:24;;;;;;;2.90;2.17;;;19.50;91.70;;;;;;5059076;28;20613;-78
2022/04/28 10:09:53;;;;;;;3.80;2.17;;;19.40;91.80;;;;;;5051075;28;20192;-78
2022/04/28 10:12:28;;;;;;;4.40;2.30;;;19.40;91.70;;;;;;5048572;28;20208;-78
2022/04/28 10:14:56;;;;;;;4.37;2.40;;;19.30;91.90;;;;;;5054669;28;20262;-79
2022/04/28 10:17:44;;;;;;;3.70;2.50;;;19.30;92.00;;;;;;5057473;28;20183;-79
2022/04/28 10:20:18;;;;;;;3.70;2.30;;;19.30;92.00;;;;;;5042574;28;20265;-83
2022/04/28 10:22:47;;;;;;;5.70;2.20;;;19.30;92.00;;;;;;5065564;28;20179;-77
2022/04/28 10:33:49;;;;;;;3.03;1.90;;;19.40;91.70;;;;;;5073973;28;20187;-77
2022/04/28 10:36:21;;;;;;;3.47;2.27;;;19.40;91.70;;;;;;5072561;28;20179;-80
2022/04/28 10:39:07;;;;;;;3.80;2.10;;;19.40;91.60;;;;;;5073351;28;20647;-81
2022/04/28 10:41:35;;;;;;;3.43;2.03;;;19.40;91.80;;;;;;5058046;28;20232;-80
2022/04/28 10:44:16;;;;;;;4.97;2.37;;;19.40;91.60;;;;;;5053705;28;20184;-81
2022/04/28 10:47:00;;;;;;;3.47;2.10;;;19.40;91.50;;;;;;5066870;28;20176;-80
2022/04/28 10:49:40;;;;;;;3.07;1.90;;;19.50;91.40;;;;;;5072861;28;20228;-79
2022/04/28 10:52:22;;;;;;;2.83;1.90;;;19.50;91.00;;;;;;5053498;28;20214;-78
2022/04/28 10:54:53;;;;;;;5.53;2.10;;;19.50;90.70;;;;;;5059165;28;20657;-80
2022/04/28 10:57:32;;;;;;;5.57;2.30;;;19.60;90.40;;;;;;5073578;28;20168;-80
2022/04/28 11:00:03;;;;;;;5.77;1.80;;;19.50;90.40;;;;;;5058716;28;20196;-78
2022/04/28 11:02:37;;;;;;;7.03;2.20;;;19.60;90.30;;;;;;5034562;28;20271;-79
2022/04/28 11:05:31;;;;;;;3.33;1.70;;;19.70;89.90;;;;;;5049030;28;20218;-79
2022/04/28 11:08:00;;;;;;;2.70;1.80;;;19.70;89.90;;;;;;5054509;28;20207;-81
2022/04/28 11:10:28;;;;;;;4.00;1.93;;;19.70;89.90;;;;;;5033531;28;20243;-79
2022/04/28 11:12:56;;;;;;;3.90;1.93;;;19.70;90.20;;;;;;5038323;28;20183;-81
2022/04/28 11:15:25;;;;;;;3.93;1.90;;;19.70;89.90;;;;;;5063834;28;20219;-81
2022/04/28 11:17:52;;;;;;;2.87;2.53;;;19.70;89.60;;;;;;5066653;28;20179;-80
2022/04/28 11:20:21;;;;;;;5.90;4.50;;;19.70;89.60;;;;;;5056727;28;20253;-81
2022/04/28 11:22:52;;;;;;;6.23;3.90;;;19.70;89.70;;;;;;5053057;28;20184;-80
2022/04/28 11:25:22;;;;;;;7.00;4.07;;;19.70;90.00;;;;;;5065901;28;20218;-80
2022/04/28 11:27:51;;;;;;;3.00;1.50;;;19.70;89.90;;;;;;5056613;28;20233;-81
2022/04/28 11:30:21;;;;;;;2.67;1.50;;;19.70;89.70;;;;;;5052376;28;20507;-79
2022/04/28 11:32:57;;;;;;;4.03;1.67;;;19.70;89.70;;;;;;5066657;28;20183;-80
2022/04/28 11:35:32;;;;;;;2.50;1.80;;;19.70;89.60;;;;;;5062497;28;20214;-79
2022/04/28 11:38:00;;;;;;;2.33;1.53;;;19.70;89.60;;;;;;5066090;28;20180;-80
2022/04/28 11:40:30;;;;;;;3.40;1.33;;;19.70;89.60;;;;;;5052794;28;20183;-81
2022/04/28 11:42:59;;;;;;;2.43;1.60;;;19.80;89.70;;;;;;5052923;28;20242;-81
2022/04/28 11:45:29;;;;;;;3.37;1.60;;;19.80;89.60;;;;;;5061394;28;20203;-81
2022/04/28 11:47:59;;;;;;;1.93;1.63;;;19.80;89.40;;;;;;5069184;28;20179;-80
2022/04/28 11:50:35;;;;;;;2.30;1.50;;;19.80;89.60;;;;;;5053042;28;20199;-79
2022/04/28 11:53:04;;;;;;;2.60;1.87;;;19.80;89.50;;;;;;5056065;28;20664;-82
2022/04/28 11:55:35;;;;;;;2.47;1.93;;;19.80;89.80;;;;;;5073084;28;20641;-81
2022/04/28 11:58:04;;;;;;;6.50;2.30;;;19.70;90.00;;;;;;5052911;28;20199;-81
2022/04/28 12:00:42;;;;;;;2.83;1.33;;;19.70;90.00;;;;;;5032608;28;20203;-80
2022/04/28 12:03:10;;;;;;;2.63;1.70;;;19.70;90.00;;;;;;5060902;28;20182;-80
2022/04/28 12:05:37;;;;;;;4.97;1.73;;;19.70;90.00;;;;;;5072507;28;20211;-79
2022/04/28 12:08:05;;;;;;;2.53;1.97;;;19.70;90.10;;;;;;5068750;28;20183;-81
2022/04/28 12:16:14;;;;;;;3.30;1.60;;;19.70;90.30;;;;;;5033262;28;20694;-82
2022/04/28 12:21:33;;;;;;;4.57;2.00;;;19.70;90.30;;;;;;5052602;28;20305;-81
2022/04/28 12:24:00;;;;;;;3.63;1.60;;;19.70;90.00;;;;;;5054648;28;20182;-79
2022/04/28 12:26:34;;;;;;;2.57;1.57;;;19.70;89.90;;;;;;5051878;28;20194;-80
2022/04/28 12:29:16;;;;;;;3.13;1.80;;;19.70;89.70;;;;;;5047283;28;20782;-81
2022/04/28 12:31:44;;;;;;;3.03;1.70;;;19.70;89.70;;;;;;5049883;28;20184;-79
2022/04/28 12:34:22;;;;;;;3.53;1.47;;;19.70;89.70;;;;;;5052470;28;20179;-80
2022/04/28 12:36:58;;;;;;;3.93;1.80;;;19.60;90.00;;;;;;5053328;28;20504;-81
2022/04/28 12:39:28;;;;;;;3.93;2.00;;;19.60;90.10;;;;;;5052546;28;20176;-80
2022/04/28 12:41:56;;;;;;;3.40;1.90;;;19.50;90.50;;;;;;5050965;28;20228;-80
2022/04/28 12:45:03;;;;;;;;;;;;;;;;;;;;;
2022/04/28 12:47:59;;;;;;;4.20;1.83;;;19.50;90.30;;;;;;5043015;28;20680;-80
2022/04/28 12:50:27;;;;;;;4.07;2.17;;;19.50;90.20;;;;;;5056782;28;20179;-79
2022/04/28 12:52:54;;;;;;;4.90;1.90;;;19.50;90.10;;;;;;5041836;28;20184;-80
2022/04/28 12:55:22;;;;;;;4.20;1.90;;;19.50;90.10;;;;;;5045183;28;20259;-79
2022/04/28 12:57:52;;;;;;;2.20;1.40;;;19.50;90.00;;;;;;5054215;28;20181;-80
2022/04/28 13:00:20;;;;;;;4.47;1.70;;;19.50;90.00;;;;;;5050664;28;20189;-79
2022/04/28 13:02:52;;;;;;;3.97;1.73;;;19.60;90.10;;;;;;5056089;28;20176;-78
2022/04/28 13:05:21;;;;;;;2.10;1.87;;;19.50;90.00;;;;;;5055637;28;20211;-79
2022/04/28 13:07:48;;;;;;;4.90;2.23;;;19.60;90.00;;;;;;5055546;28;20687;-78
2022/04/28 13:10:17;;;;;;;3.90;2.20;;;19.60;89.60;;;;;;5055365;28;20184;-79
2022/04/28 13:12:44;;;;;;;2.90;1.70;;;19.60;89.70;;;;;;5055990;28;20646;-79
2022/04/28 13:15:13;;;;;;;1.80;1.70;;;19.60;89.80;;;;;;5055527;28;20537;-80
2022/04/28 13:17:40;;;;;;;1.93;1.70;;;19.50;89.90;;;;;;5055301;28;20176;-78
2022/04/28 13:20:08;;;;;;;3.80;1.80;;;19.50;89.90;;;;;;5056598;28;20568;-79
2022/04/28 13:22:35;;;;;;;3.93;1.97;;;19.60;89.80;;;;;;5055441;28;20176;-78
2022/04/28 13:25:03;;;;;;;2.07;1.70;;;19.50;89.80;;;;;;5055217;28;20209;-81
2022/04/28 13:27:30;;;;;;;3.33;1.70;;;19.60;89.80;;;;;;5055031;28;20207;-79
2022/04/28 13:29:58;;;;;;;3.27;1.90;;;19.50;89.90;;;;;;5055300;28;20251;-78
2022/04/28 13:32:25;;;;;;;2.97;1.83;;;19.50;90.20;;;;;;5055054;28;20207;-77
2022/04/28 13:34:52;;;;;;;3.70;1.70;;;19.50;90.30;;;;;;5052570;28;20176;-79
2022/04/28 13:37:20;;;;;;;3.57;1.60;;;19.50;90.40;;;;;;5054192;28;20172;-78
2022/04/28 13:39:47;;;;;;;2.03;1.50;;;19.40;90.40;;;;;;5055288;28;20229;-77
2022/04/28 13:42:15;;;;;;;2.03;1.70;;;19.30;90.50;;;;;;5054900;28;20709;-77
2022/04/28 13:44:42;;;;;;;3.13;1.80;;;19.30;90.50;;;;;;5039381;28;20216;-80
2022/04/28 13:47:09;;;;;;;2.20;1.60;;;19.30;90.30;;;;;;5054486;28;20200;-80
2022/04/28 13:49:57;;;;;;;5.83;1.80;;;19.30;90.40;;;;;;5054644;28;20180;-79
2022/04/28 13:52:24;;;;;;;2.73;1.73;;;19.20;90.60;;;;;;5062480;28;20639;-79